Time;durP1;ratioP1;P1;durP2;ratioP2;P2;SDS_P1;SDS_P2;PMS_P1;PMS_P2;Temp;Humidity;BMP_temperature;BMP_pressure;BME280_temperature;BME280_humidity;BME280_pressure;Samples;Min_cycle;Max_cycle;Signal;HPM_P1;HPM_P2
2021/12/04 00:00:49;;;;;;;42.70;18.95;;;;;;;3.06;100.00;99985.47;5108781;28;20046;-75
2021/12/04 00:03:14;;;;;;;38.83;18.75;;;;;;;3.13;100.00;99997.16;5108658;28;20096;-74
2021/12/04 00:05:45;;;;;;;47.08;20.55;;;;;;;3.13;100.00;100005.06;5090127;28;20027;-74
2021/12/04 00:08:10;;;;;;;45.70;20.40;;;;;;;3.09;100.00;99995.75;5107286;28;20038;-75
2021/12/04 00:10:35;;;;;;;49.90;20.10;;;;;;;3.08;100.00;99991.44;5107461;28;20028;-75
2021/12/04 00:13:01;;;;;;;48.23;19.10;;;;;;;3.02;100.00;99991.97;5108525;28;20063;-74
2021/12/04 00:15:26;;;;;;;53.27;20.47;;;;;;;2.97;100.00;99987.09;5106731;28;20281;-74
2021/12/04 00:17:52;;;;;;;44.83;20.77;;;;;;;3.02;100.00;100005.16;5107716;28;20324;-74
2021/12/04 00:20:18;;;;;;;46.92;19.55;;;;;;;3.05;100.00;100007.53;5109156;28;20605;-75
2021/12/04 00:22:43;;;;;;;48.15;20.95;;;;;;;2.98;100.00;100001.13;5107471;28;20034;-75
2021/12/04 00:25:09;;;;;;;47.58;20.25;;;;;;;3.03;100.00;100014.75;5108291;28;20076;-74
2021/12/04 00:27:35;;;;;;;41.25;19.48;;;;;;;3.07;100.00;100032.00;5090607;28;20023;-74
2021/12/04 00:30:01;;;;;;;49.58;20.27;;;;;;;3.14;100.00;100041.03;5108570;28;20028;-74
2021/12/04 00:32:31;;;;;;;47.53;20.20;;;;;;;3.13;100.00;100036.72;5107575;28;20039;-74
2021/12/04 00:49:05;;;;;;;47.63;20.70;;;;;;;3.09;100.00;100064.31;5108362;28;20082;-74
2021/12/04 00:51:31;;;;;;;44.83;18.50;;;;;;;3.08;100.00;100073.22;5108271;28;20405;-74
2021/12/04 00:53:56;;;;;;;47.83;20.50;;;;;;;3.10;100.00;100081.84;5092088;28;20106;-74
2021/12/04 00:56:23;;;;;;;52.80;22.40;;;;;;;3.07;100.00;100082.09;5094444;28;20380;-74
2021/12/04 00:58:49;;;;;;;58.35;22.15;;;;;;;3.10;100.00;100084.47;5110782;28;20281;-74
2021/12/04 01:01:15;;;;;;;58.97;25.73;;;;;;;3.07;100.00;100082.94;5111558;28;20077;-75
2021/12/04 01:03:41;;;;;;;63.42;25.00;;;;;;;2.97;100.00;100076.75;5109273;28;20023;-75
2021/12/04 01:06:07;;;;;;;64.82;25.52;;;;;;;3.08;100.00;100089.88;5110947;28;20038;-75
2021/12/04 01:08:32;;;;;;;64.57;25.75;;;;;;;2.99;100.00;100081.91;5110721;28;20039;-74
2021/12/04 01:10:58;;;;;;;69.57;25.13;;;;;;;3.04;100.00;100098.16;5110340;28;20388;-75
2021/12/04 01:13:23;;;;;;;65.40;25.10;;;;;;;3.16;100.00;100120.84;5111016;28;20102;-75
2021/12/04 01:15:49;;;;;;;67.40;24.97;;;;;;;3.09;100.00;100109.16;5110573;28;20444;-75
2021/12/04 01:18:15;;;;;;;62.17;24.17;;;;;;;3.14;100.00;100123.66;5111657;28;20289;-75
2021/12/04 01:20:40;;;;;;;72.03;25.92;;;;;;;3.10;100.00;100119.59;5093806;28;20039;-74
2021/12/04 01:23:07;;;;;;;70.40;26.50;;;;;;;3.11;100.00;100128.31;5110932;28;20032;-75
2021/12/04 01:25:34;;;;;;;65.88;24.30;;;;;;;3.15;100.00;100141.13;5110597;28;20059;-75
2021/12/04 01:28:00;;;;;;;75.03;27.75;;;;;;;3.07;100.00;100130.41;5110664;28;20078;-75
2021/12/04 01:30:26;;;;;;;84.80;25.53;;;;;;;3.09;100.00;100151.34;5112075;28;20027;-75
2021/12/04 01:32:51;;;;;;;66.70;24.15;;;;;;;3.10;100.00;100156.50;5111422;28;20373;-75
2021/12/04 01:35:16;;;;;;;72.00;24.30;;;;;;;3.13;100.00;100171.25;5111182;28;20036;-75
2021/12/04 01:37:42;;;;;;;67.07;25.33;;;;;;;3.12;100.00;100173.06;5110607;28;20020;-74
2021/12/04 01:40:08;;;;;;;74.10;25.20;;;;;;;3.16;100.00;100182.38;5110658;28;20440;-75
2021/12/04 01:42:35;;;;;;;68.95;24.48;;;;;;;3.12;100.00;100188.88;5110422;28;20293;-75
2021/12/04 01:45:00;;;;;;;61.63;23.73;;;;;;;3.17;100.00;100188.50;5110082;28;20039;-75
2021/12/04 01:47:26;;;;;;;77.07;26.52;;;;;;;3.17;100.00;100188.50;5093185;28;20053;-76
2021/12/04 01:49:53;;;;;;;67.53;24.45;;;;;;;3.12;100.00;100188.88;5093371;28;20024;-75
2021/12/04 01:52:19;;;;;;;73.82;25.38;;;;;;;3.19;100.00;100197.13;5093159;28;20044;-74
2021/12/04 01:54:46;;;;;;;70.75;26.00;;;;;;;3.10;100.00;100176.78;5109770;28;20067;-75
2021/12/04 01:57:14;;;;;;;83.03;26.83;;;;;;;3.10;100.00;100187.34;5110147;28;20372;-74
2021/12/04 01:59:41;;;;;;;72.32;26.48;;;;;;;3.19;100.00;100207.66;5111066;28;20058;-75
2021/12/04 02:02:07;;;;;;;82.25;26.35;;;;;;;3.16;100.00;100192.94;5093016;28;20016;-75
2021/12/04 02:04:33;;;;;;;;;;;;;;;3.19;100.00;100202.41;5109643;28;20043;-75
2021/12/04 02:07:03;;;;;;;73.75;25.38;;;;;;;3.13;100.00;100198.44;5109985;28;19908;-75
2021/12/04 02:09:29;;;;;;;75.18;25.98;;;;;;;3.14;100.00;100202.78;5110582;28;20505;-75
2021/12/04 02:11:54;;;;;;;66.40;25.80;;;;;;;3.23;100.00;100211.75;5111079;28;20081;-75
2021/12/04 02:14:20;;;;;;;72.00;26.90;;;;;;;3.15;100.00;100200.97;5110449;28;20472;-75
2021/12/04 02:16:45;;;;;;;76.13;26.07;;;;;;;3.14;100.00;100196.69;5110832;28;20061;-75
2021/12/04 02:19:13;;;;;;;75.45;27.63;;;;;;;3.20;100.00;100204.06;5110604;28;20506;-75
2021/12/04 02:21:39;;;;;;;73.65;25.77;;;;;;;3.17;100.00;100199.03;5109686;28;20031;-75
2021/12/04 02:24:05;;;;;;;57.00;23.13;;;;;;;3.21;100.00;100211.03;5109301;28;20036;-75
2021/12/04 02:26:31;;;;;;;;;;;;;;;3.25;100.00;100215.06;5109993;28;20032;-75
2021/12/04 02:28:57;;;;;;;55.63;19.92;;;;;;;3.20;100.00;100198.78;5110371;27;20056;-74
2021/12/04 02:31:23;;;;;;;;;;;;;;;3.21;100.00;100199.59;5110007;28;20539;-75
2021/12/04 02:33:48;;;;;;;59.03;21.48;;;;;;;3.18;100.00;100190.16;5110216;28;19915;-75
2021/12/04 02:36:14;;;;;;;54.63;22.05;;;;;;;3.24;100.00;100199.38;5110150;28;20197;-74
2021/12/04 02:38:40;;;;;;;62.22;23.17;;;;;;;3.22;100.00;100196.03;5110233;28;20043;-75
2021/12/04 02:41:05;;;;;;;58.55;22.67;;;;;;;3.16;100.00;100182.38;5109113;28;20411;-75
2021/12/04 02:43:34;;;;;;;62.53;23.97;;;;;;;3.22;100.00;100191.56;5109025;28;20058;-74
2021/12/04 02:45:59;;;;;;;75.82;24.27;;;;;;;3.12;100.00;100175.69;5108112;28;20467;-74
2021/12/04 02:48:25;;;;;;;72.25;24.90;;;;;;;3.21;100.00;100196.97;5110073;27;20035;-75
2021/12/04 02:50:50;;;;;;;84.57;26.63;;;;;;;3.21;100.00;100195.19;5109078;28;20024;-75
2021/12/04 02:53:17;;;;;;;83.73;27.20;;;;;;;3.23;100.00;100198.53;5091681;28;20401;-75
2021/12/04 02:55:43;;;;;;;79.55;27.67;;;;;;;3.19;100.00;100191.84;5108472;28;20367;-75
2021/12/04 02:58:09;;;;;;;72.57;28.08;;;;;;;3.15;100.00;100190.41;5107774;28;20122;-74
2021/12/04 03:00:47;;;;;;;85.57;28.05;;;;;;;3.17;100.00;100189.31;5109116;28;20358;-74
2021/12/04 03:03:13;;;;;;;83.85;27.25;;;;;;;3.12;100.00;100180.13;5108980;28;20548;-75
2021/12/04 03:05:39;;;;;;;84.47;26.67;;;;;;;3.17;100.00;100193.78;5108603;28;20106;-74
2021/12/04 03:08:06;;;;;;;88.55;28.83;;;;;;;3.15;100.00;100191.25;5109333;28;20490;-74
2021/12/04 03:10:32;;;;;;;92.82;27.55;;;;;;;3.19;100.00;100197.13;5108593;28;20132;-74
2021/12/04 03:12:58;;;;;;;83.43;28.20;;;;;;;3.07;100.00;100182.31;5108599;28;20484;-74
2021/12/04 03:15:24;;;;;;;89.45;28.75;;;;;;;3.12;100.00;100190.69;5107794;28;20040;-74
2021/12/04 03:17:50;;;;;;;86.47;29.53;;;;;;;3.09;100.00;100175.09;5109126;28;20228;-74
2021/12/04 03:20:17;;;;;;;86.25;26.40;;;;;;;3.14;100.00;100194.03;5109355;28;20028;-74
2021/12/04 03:22:45;;;;;;;86.32;27.83;;;;;;;3.13;100.00;100193.19;5108584;28;20054;-74
2021/12/04 03:25:12;;;;;;;79.95;27.10;;;;;;;3.18;100.00;100198.06;5108104;28;20755;-74
2021/12/04 03:27:39;;;;;;;77.38;27.67;;;;;;;3.13;100.00;100184.44;5107805;28;20028;-74
2021/12/04 03:30:11;;;;;;;79.20;24.88;;;;;;;3.13;100.00;100176.53;5108404;28;20058;-74
2021/12/04 03:35:16;;;;;;;74.72;25.17;;;;;;;3.12;100.00;100175.69;5109303;28;20598;-74
2021/12/04 03:40:56;;;;;;;73.65;25.48;;;;;;;3.09;100.00;100164.53;5108273;28;20100;-74
2021/12/04 03:43:23;;;;;;;70.22;24.55;;;;;;;3.09;100.00;100164.53;5091398;28;20035;-73
2021/12/04 03:45:54;;;;;;;64.05;22.40;;;;;;;3.14;100.00;100179.03;5108704;28;20365;-74
2021/12/04 03:51:00;;;;;;;58.33;20.83;;;;;;;3.10;100.00;100172.34;5109325;28;20041;-74
2021/12/04 03:53:26;;;;;;;64.93;23.05;;;;;;;3.10;100.00;100169.69;5109016;28;20039;-74
2021/12/04 03:55:52;;;;;;;;;;;;;;;3.05;100.00;100168.44;5108212;28;20246;-74
2021/12/04 03:58:18;;;;;;;60.30;20.20;;;;;;;3.09;100.00;100170.69;5107900;28;19964;-74
2021/12/04 04:00:44;;;;;;;56.75;20.17;;;;;;;3.10;100.00;100169.69;5107962;28;20096;-74
2021/12/04 04:03:10;;;;;;;63.65;19.60;;;;;;;3.12;100.00;100178.31;5108957;28;20469;-74
2021/12/04 04:05:35;;;;;;;56.25;18.73;;;;;;;3.15;100.00;100177.22;5107787;28;20479;-74
2021/12/04 04:08:01;;;;;;;63.37;22.37;;;;;;;3.13;100.00;100171.25;5108504;28;20039;-74
2021/12/04 04:10:26;;;;;;;57.42;19.88;;;;;;;3.22;100.00;100186.31;5108900;28;20036;-74
2021/12/04 04:12:52;;;;;;;63.30;21.27;;;;;;;3.17;100.00;100170.84;5108826;28;20045;-74
2021/12/04 04:15:20;;;;;;;64.67;21.10;;;;;;;3.13;100.00;100158.88;5108767;28;20035;-74
2021/12/04 04:17:45;;;;;;;58.72;19.85;;;;;;;3.13;100.00;100163.31;5107824;28;20452;-74
2021/12/04 04:20:14;;;;;;;59.78;21.05;;;;;;;3.23;100.00;100177.44;5107845;28;20088;-74
2021/12/04 04:22:40;;;;;;;61.92;20.75;;;;;;;3.12;100.00;100148.47;5107712;28;20100;-74
2021/12/04 04:25:07;;;;;;;62.00;22.75;;;;;;;3.14;100.00;100146.56;5107439;28;20109;-74
2021/12/04 04:27:32;;;;;;;65.97;21.20;;;;;;;3.13;100.00;100144.88;5110030;28;20024;-74
2021/12/04 04:29:58;;;;;;;67.45;22.45;;;;;;;3.21;100.00;100144.22;5112834;27;20038;-74
2021/12/04 04:32:24;;;;;;;65.97;21.48;;;;;;;3.13;100.00;100129.03;5111953;28;20428;-74
2021/12/04 04:34:53;;;;;;;62.08;22.15;;;;;;;3.18;100.00;100137.41;5111492;28;20034;-74
2021/12/04 04:37:32;;;;;;;61.40;22.60;;;;;;;3.17;100.00;100130.47;5094868;28;20043;-74
2021/12/04 04:59:15;;;;;;;66.03;21.15;;;;;;;3.20;100.00;100098.53;5112458;28;20028;-74
2021/12/04 05:15:33;;;;;;;62.33;22.52;;;;;;;3.11;100.00;100092.25;5111660;28;20043;-74
2021/12/04 05:20:49;;;;;;;69.72;24.35;;;;;;;3.09;100.00;100117.06;5111963;28;20063;-74
2021/12/04 05:23:15;;;;;;;66.22;23.25;;;;;;;3.12;100.00;100122.94;5111822;28;20047;-74
2021/12/04 05:25:41;;;;;;;82.35;26.65;;;;;;;3.11;100.00;100130.97;5111542;28;20173;-74
2021/12/04 05:28:08;;;;;;;70.63;23.35;;;;;;;3.13;100.00;100136.94;5110488;28;20035;-74
2021/12/04 05:30:35;;;;;;;63.17;23.25;;;;;;;3.12;100.00;100132.66;5110390;28;20472;-74
2021/12/04 05:33:00;;;;;;;74.97;23.35;;;;;;;3.14;100.00;100136.00;5110674;28;20426;-74
2021/12/04 05:35:26;;;;;;;60.10;21.10;;;;;;;3.12;100.00;100137.94;5110553;28;20043;-74
2021/12/04 05:37:52;;;;;;;68.28;24.35;;;;;;;3.04;100.00;100122.72;5111515;28;20036;-75
2021/12/04 05:40:18;;;;;;;70.38;22.75;;;;;;;3.06;100.00;100143.72;5109657;28;20051;-74
2021/12/04 05:42:45;;;;;;;74.07;23.48;;;;;;;3.10;100.00;100158.31;5110380;28;20039;-74
2021/12/04 05:45:23;;;;;;;67.78;22.65;;;;;;;3.12;100.00;100153.75;5110107;28;20032;-74
2021/12/04 05:48:14;;;;;;;70.63;22.95;;;;;;;3.07;100.00;100148.03;5093364;28;20047;-74
2021/12/04 05:53:24;;;;;;;71.70;24.73;;;;;;;3.09;100.00;100161.91;5111003;28;20043;-74
2021/12/04 05:55:53;;;;;;;70.70;23.00;;;;;;;3.11;100.00;100171.41;5109934;28;20453;-74
2021/12/04 05:58:28;;;;;;;66.55;22.50;;;;;;;3.11;100.00;100178.44;5110087;28;20449;-74
2021/12/04 06:00:55;;;;;;;73.88;24.88;;;;;;;3.11;100.00;100173.16;5111200;28;20035;-74
2021/12/04 06:03:21;;;;;;;60.88;19.42;;;;;;;3.13;100.00;100180.00;5110106;28;20096;-74
2021/12/04 06:05:46;;;;;;;62.00;21.67;;;;;;;3.13;100.00;100181.78;5109748;28;20782;-74
2021/12/04 06:08:13;;;;;;;65.55;24.00;;;;;;;2.99;100.00;100153.09;5111065;28;20039;-74
2021/12/04 06:10:39;;;;;;;72.13;25.13;;;;;;;3.09;100.00;100178.59;5109980;28;20053;-74
2021/12/04 06:13:04;;;;;;;70.55;21.00;;;;;;;3.07;100.00;100177.06;5109853;28;20035;-74
2021/12/04 06:15:30;;;;;;;73.73;24.10;;;;;;;3.10;100.00;100179.41;5092630;28;20080;-74
2021/12/04 06:17:56;;;;;;;64.32;22.20;;;;;;;3.17;100.00;100193.78;5110791;28;20289;-74
2021/12/04 06:23:06;;;;;;;46.05;15.25;;;;;;;3.17;100.00;100185.84;5110707;28;20432;-74
2021/12/04 06:25:32;;;;;;;72.67;22.33;;;;;;;3.08;100.00;100163.72;5109564;28;20031;-74
2021/12/04 06:27:57;;;;;;;56.07;19.13;;;;;;;3.06;100.00;100157.72;5109737;28;20039;-74
2021/12/04 06:30:25;;;;;;;59.13;19.60;;;;;;;3.06;100.00;100159.53;5109743;28;20059;-74
2021/12/04 06:32:52;;;;;;;66.68;21.15;;;;;;;3.05;100.00;100155.25;5110419;28;20023;-74
2021/12/04 06:35:19;;;;;;;75.03;21.88;;;;;;;3.02;100.00;100153.69;5092142;28;20810;-74
2021/12/04 06:37:45;;;;;;;63.65;21.77;;;;;;;2.95;100.00;100140.19;5109424;28;20067;-74
2021/12/04 06:40:12;;;;;;;68.18;23.30;;;;;;;3.08;100.00;100170.78;5109494;28;20122;-74
2021/12/04 06:42:38;;;;;;;76.20;25.58;;;;;;;3.02;100.00;100168.66;5092471;28;20043;-74
2021/12/04 06:45:04;;;;;;;;;;;;;;;3.13;100.00;100181.78;5110425;28;20051;-74
2021/12/04 06:47:31;;;;;;;65.15;23.45;;;;;;;3.09;100.00;100175.09;5109387;28;20256;-75
2021/12/04 06:50:03;;;;;;;73.45;21.92;;;;;;;3.14;100.00;100194.88;5109268;28;20020;-74
2021/12/04 06:52:29;;;;;;;67.65;22.20;;;;;;;3.12;100.00;100180.13;5110140;28;20032;-74
2021/12/04 06:54:59;;;;;;;65.40;21.73;;;;;;;3.12;100.00;100170.41;5091844;28;20028;-75
2021/12/04 06:57:25;;;;;;;65.00;22.63;;;;;;;3.11;100.00;100152.94;5092332;28;20031;-74
2021/12/04 06:59:54;;;;;;;;;;;;;;;3.06;100.00;100136.63;5111704;28;20036;-75
2021/12/04 07:02:20;;;;;;;66.95;22.05;;;;;;;3.12;100.00;100132.66;5092421;28;20290;-74
2021/12/04 07:04:45;;;;;;;77.65;24.33;;;;;;;3.07;100.00;100113.75;5108608;28;20062;-75
2021/12/04 07:07:11;;;;;;;66.85;24.00;;;;;;;3.04;100.00;100100.81;5108919;28;20040;-75
2021/12/04 07:09:39;;;;;;;65.55;25.27;;;;;;;3.09;100.00;100106.50;5108884;28;20035;-75
2021/12/04 07:12:05;;;;;;;69.20;25.05;;;;;;;3.06;100.00;100088.31;5108642;28;20134;-74
2021/12/04 07:14:32;;;;;;;69.95;22.83;;;;;;;2.94;100.00;100064.66;5108415;28;20368;-74
2021/12/04 07:17:01;;;;;;;50.28;19.77;;;;;;;3.07;100.00;100090.00;5108546;28;20046;-75
2021/12/04 07:19:27;;;;;;;46.80;16.88;;;;;;;3.04;100.00;100077.06;5091858;28;20356;-75
2021/12/04 07:21:52;;;;;;;41.63;15.38;;;;;;;3.05;100.00;100073.47;5108558;28;20035;-75
2021/12/04 07:24:19;;;;;;;44.20;16.98;;;;;;;2.99;100.00;100048.44;5109554;28;20035;-75
2021/12/04 07:26:45;;;;;;;53.38;18.17;;;;;;;3.00;100.00;100038.72;5108546;28;20349;-75
2021/12/04 07:29:10;;;;;;;47.17;17.75;;;;;;;2.95;100.00;100021.53;5109257;28;20039;-75
2021/12/04 07:31:39;;;;;;;42.72;16.65;;;;;;;2.96;100.00;100017.06;5108419;28;20357;-75
2021/12/04 07:34:05;;;;;;;53.03;18.42;;;;;;;2.90;100.00;100007.91;5109110;28;20399;-75
2021/12/04 07:36:31;;;;;;;49.25;17.77;;;;;;;2.91;100.00;100004.28;5108272;28;20111;-75
2021/12/04 07:38:56;;;;;;;48.57;16.77;;;;;;;2.82;100.00;99997.16;5108417;28;20725;-75
2021/12/04 07:41:22;;;;;;;46.72;18.58;;;;;;;2.85;100.00;99990.78;5108246;28;20035;-76
2021/12/04 07:43:48;;;;;;;44.60;17.60;;;;;;;2.89;100.00;100002.75;5091102;28;20035;-75
2021/12/04 07:46:14;;;;;;;51.47;17.50;;;;;;;2.81;100.00;99987.59;5108229;28;20414;-76
2021/12/04 07:48:39;;;;;;;37.97;16.42;;;;;;;2.94;100.00;100005.81;5108260;28;20024;-75
2021/12/04 07:51:05;;;;;;;36.45;13.80;;;;;;;2.86;100.00;99987.19;5108132;28;20086;-76
2021/12/04 07:53:31;;;;;;;43.77;15.20;;;;;;;2.79;100.00;99967.59;5108813;28;20028;-75
2021/12/04 07:55:57;;;;;;;;;;;;;;;2.88;100.00;99986.09;5108139;28;20292;-75
2021/12/04 07:58:23;;;;;;;41.92;15.73;;;;;;;2.90;100.00;99981.53;5108995;28;19915;-75
2021/12/04 08:00:49;;;;;;;44.10;15.82;;;;;;;2.91;100.00;99972.66;5109084;28;20372;-75
2021/12/04 08:03:14;;;;;;;42.33;15.75;;;;;;;2.85;100.00;99965.25;5090601;28;20096;-75
2021/12/04 08:05:41;;;;;;;41.35;16.23;;;;;;;2.88;100.00;99972.06;5108726;28;20032;-75
2021/12/04 08:08:06;;;;;;;45.65;15.77;;;;;;;2.99;100.00;99986.97;5107923;28;20501;-76
2021/12/04 08:10:33;;;;;;;48.38;18.23;;;;;;;3.02;100.00;99981.41;5090829;28;20035;-75
2021/12/04 08:13:02;;;;;;;45.05;16.48;;;;;;;3.00;100.00;99981.56;5107857;28;20508;-76
2021/12/04 08:15:28;;;;;;;49.22;16.08;;;;;;;2.98;100.00;99975.59;5107586;28;20051;-76
2021/12/04 08:17:54;;;;;;;;;;;;;;;3.07;100.00;99985.34;5108385;28;20042;-76
2021/12/04 08:20:20;;;;;;;40.28;14.15;;;;;;;2.93;100.00;99960.16;5107184;28;19916;-76
2021/12/04 08:22:46;;;;;;;45.55;15.45;;;;;;;3.05;100.00;99968.00;5089180;28;20039;-76
2021/12/04 08:25:15;;;;;;;37.38;14.27;;;;;;;3.01;100.00;99958.66;5106684;28;20471;-76
2021/12/04 08:27:41;;;;;;;37.20;12.77;;;;;;;3.12;100.00;99967.31;5106983;28;20056;-75
2021/12/04 08:30:11;;;;;;;35.50;13.68;;;;;;;3.07;100.00;99951.06;5106012;28;20185;-76
2021/12/04 08:32:37;;;;;;;38.40;14.40;;;;;;;3.04;100.00;99924.94;5105783;28;20063;-75
2021/12/04 08:35:06;;;;;;;43.80;13.98;;;;;;;3.01;100.00;99916.47;5088590;28;20364;-75
2021/12/04 08:37:31;;;;;;;35.58;14.90;;;;;;;2.90;100.00;99872.56;5090741;28;20471;-75
2021/12/04 08:39:56;;;;;;;35.00;13.82;;;;;;;3.04;100.00;99881.91;5108504;28;20036;-75
2021/12/04 08:42:24;;;;;;;33.23;13.77;;;;;;;3.02;100.00;99857.47;5107566;28;20051;-75
2021/12/04 08:44:50;;;;;;;31.23;14.30;;;;;;;3.14;100.00;99862.50;5107326;28;20329;-75
2021/12/04 08:47:15;;;;;;;39.58;14.38;;;;;;;3.18;100.00;99839.31;5090600;28;20027;-75
2021/12/04 08:49:43;;;;;;;29.83;11.57;;;;;;;3.12;100.00;99826.69;5108654;28;20043;-75
2021/12/04 08:52:09;;;;;;;28.40;10.88;;;;;;;3.01;100.00;99793.34;5107471;28;20059;-75
2021/12/04 08:54:36;;;;;;;;;;;;;;;3.08;100.00;99791.00;5107492;28;20040;-75
2021/12/04 08:57:02;;;;;;;27.80;11.88;;;;;;;3.10;100.00;99776.72;5107026;28;20372;-75
2021/12/04 08:59:29;;;;;;;26.85;12.35;;;;;;;3.05;100.00;99757.00;5107542;28;20027;-75
2021/12/04 09:01:54;;;;;;;30.80;12.60;;;;;;;2.99;100.00;99732.00;5108769;28;20473;-75
2021/12/04 09:04:26;;;;;;;23.70;11.55;;;;;;;3.08;100.00;99739.09;5108160;28;20039;-75
2021/12/04 09:06:53;;;;;;;30.85;13.60;;;;;;;3.05;100.00;99718.28;5108185;28;20063;-75
2021/12/04 09:09:19;;;;;;;35.80;15.07;;;;;;;2.99;100.00;99708.28;5107383;28;20079;-75
2021/12/04 09:11:51;;;;;;;34.65;14.70;;;;;;;2.98;100.00;99700.53;5107322;28;20035;-75
2021/12/04 09:14:21;;;;;;;41.97;15.45;;;;;;;3.03;100.00;99693.03;5108851;28;20036;-74
2021/12/04 09:16:49;;;;;;;39.88;16.23;;;;;;;3.07;100.00;99691.78;5110930;28;20127;-75
2021/12/04 09:19:15;;;;;;;35.60;15.68;;;;;;;2.98;100.00;99674.16;5110696;28;20064;-75
2021/12/04 09:21:41;;;;;;;39.58;14.40;;;;;;;2.84;100.00;99667.50;5111869;28;20436;-75
2021/12/04 09:24:13;;;;;;;39.65;14.77;;;;;;;2.88;100.00;99682.91;5110586;28;20043;-75
2021/12/04 09:29:34;;;;;;;;;;;;;;;3.00;100.00;99680.94;5112178;28;20100;-75
2021/12/04 09:32:14;;;;;;;33.15;13.90;;;;;;;2.96;100.00;99672.47;5111549;28;20371;-75
2021/12/04 09:59:35;;;;;;;38.20;16.92;;;;;;;2.81;100.00;99615.91;5111055;28;20046;-74
2021/12/04 10:11:21;;;;;;;39.72;16.55;;;;;;;2.82;100.00;99627.25;5109828;28;20424;-75
2021/12/04 10:34:32;;;;;;;48.00;22.27;;;;;;;2.74;100.00;99631.44;5110325;28;20042;-75
2021/12/04 10:37:06;;;;;;;44.42;18.27;;;;;;;2.84;100.00;99652.50;5109357;28;20038;-75
2021/12/04 10:39:32;;;;;;;57.33;24.13;;;;;;;2.74;100.00;99631.44;5109551;28;20039;-75
2021/12/04 10:41:59;;;;;;;52.08;21.25;;;;;;;2.74;100.00;99638.50;5110457;28;20356;-75
2021/12/04 10:44:26;;;;;;;59.35;21.83;;;;;;;2.67;100.00;99635.59;5110107;28;20123;-75
2021/12/04 10:47:06;;;;;;;48.75;19.58;;;;;;;2.73;100.00;99639.47;5109216;28;20494;-75
2021/12/04 10:49:50;;;;;;;52.67;21.40;;;;;;;2.71;100.00;99638.78;5109381;28;20078;-75
2021/12/04 10:52:35;;;;;;;58.78;22.40;;;;;;;2.67;100.00;99653.19;5109145;28;20066;-75
2021/12/04 10:55:27;;;;;;;56.35;22.25;;;;;;;2.69;100.00;99659.16;5091756;28;20031;-75
2021/12/04 11:03:54;;;;;;;57.80;22.70;;;;;;;2.40;100.00;99641.53;5070315;28;20119;-75
2021/12/04 11:06:49;;;;;;;50.38;18.58;;;;;;;2.43;100.00;99675.50;5107495;28;20044;-75
2021/12/04 11:26:40;;;;;;;56.17;21.23;;;;;;;2.61;100.00;99760.00;5109723;28;20031;-75
2021/12/04 11:45:19;;;;;;;45.47;18.60;;;;;;;2.60;100.00;99766.25;5107935;28;20047;-75
2021/12/04 11:47:50;;;;;;;41.85;17.15;;;;;;;2.69;100.00;99764.59;5109045;28;20077;-75
2021/12/04 11:50:21;;;;;;;44.83;19.10;;;;;;;2.66;100.00;99751.69;5108173;28;20055;-75
2021/12/04 11:52:49;;;;;;;40.20;17.75;;;;;;;2.68;100.00;99726.84;5108191;28;20032;-75
2021/12/04 11:55:16;;;;;;;45.03;17.45;;;;;;;2.72;100.00;99714.25;5107957;28;20036;-75
2021/12/04 11:57:43;;;;;;;51.03;20.77;;;;;;;2.61;100.00;99685.38;5107982;28;20043;-75
2021/12/04 12:00:26;;;;;;;49.00;20.05;;;;;;;2.67;100.00;99695.34;5091129;28;20061;-75
2021/12/04 12:03:19;;;;;;;44.55;19.42;;;;;;;2.58;100.00;99678.59;5090985;28;20039;-75
2021/12/04 12:05:48;;;;;;;43.88;17.95;;;;;;;2.70;100.00;99706.47;5107568;28;20041;-75
2021/12/04 12:08:31;;;;;;;56.03;19.65;;;;;;;2.65;100.00;99681.50;5107903;28;20036;-75
2021/12/04 12:11:00;;;;;;;55.95;21.55;;;;;;;2.56;100.00;99662.06;5108829;28;20095;-75
2021/12/04 12:13:35;;;;;;;55.05;20.67;;;;;;;2.64;100.00;99685.09;5107943;28;20470;-75
2021/12/04 12:16:04;;;;;;;51.88;19.98;;;;;;;2.71;100.00;99692.31;5108819;28;20362;-75
2021/12/04 12:18:30;;;;;;;47.10;19.95;;;;;;;2.64;100.00;99680.66;5107842;28;20039;-75
2021/12/04 12:21:08;;;;;;;51.92;21.63;;;;;;;2.65;100.00;99684.16;5107850;28;20059;-75
2021/12/04 12:23:34;;;;;;;56.80;23.77;;;;;;;2.68;100.00;99692.59;5090118;28;20372;-75
2021/12/04 12:26:29;;;;;;;43.15;19.02;;;;;;;2.72;100.00;99699.25;5107764;28;20413;-74
2021/12/04 12:37:21;;;;;;;;;;;;;;;2.73;100.00;99669.28;5108135;28;20081;-74
2021/12/04 12:40:06;;;;;;;44.83;18.53;;;;;;;2.64;100.00;99653.47;5108675;28;19922;-74
2021/12/04 12:42:36;;;;;;;43.35;18.52;;;;;;;2.58;100.00;99648.78;5090656;28;20781;-74
2021/12/04 12:45:29;;;;;;;42.30;17.83;;;;;;;2.69;100.00;99677.59;5108369;28;20046;-74
2021/12/04 12:47:59;;;;;;;42.17;17.65;;;;;;;2.69;100.00;99669.69;5108719;28;20492;-75
2021/12/04 12:50:34;;;;;;;45.72;17.20;;;;;;;2.68;100.00;99671.50;5112660;28;20338;-74
2021/12/04 12:53:13;;;;;;;48.90;20.60;;;;;;;2.75;100.00;99687.59;5111378;28;20106;-75
2021/12/04 12:55:40;;;;;;;43.45;17.50;;;;;;;2.85;100.00;99698.97;5094224;28;20050;-74
2021/12/04 12:58:20;;;;;;;43.97;18.42;;;;;;;2.94;100.00;99708.69;5112176;28;20043;-75
2021/12/04 13:12:11;;;;;;;38.00;15.80;;;;;;;2.90;100.00;99620.31;5112394;28;20063;-74
2021/12/04 13:14:42;;;;;;;40.97;17.75;;;;;;;2.93;100.00;99606.84;5093888;28;20480;-75
2021/12/04 13:17:11;;;;;;;39.83;17.40;;;;;;;2.94;100.00;99600.59;5111862;27;20046;-74
2021/12/04 13:19:39;;;;;;;106.47;54.90;;;;;;;3.08;100.00;99609.88;5111021;28;20122;-75
2021/12/04 13:22:09;;;;;;;39.60;16.08;;;;;;;3.07;100.00;99588.94;5094051;28;20039;-75
2021/12/04 13:24:37;;;;;;;75.90;36.60;;;;;;;3.18;100.00;99601.94;5111054;28;20031;-74
2021/12/04 13:29:40;;;;;;;57.20;19.25;;;;;;;3.01;100.00;99550.75;5110848;28;20039;-74
2021/12/04 13:32:06;;;;;;;38.17;17.30;;;;;;;2.96;100.00;99538.00;5110824;28;20047;-74
2021/12/04 13:34:33;;;;;;;;;;;;;;;2.96;100.00;99543.28;5111765;28;20039;-75
2021/12/04 13:36:59;;;;;;;33.75;15.80;;;;;;;2.91;100.00;99529.69;5110679;28;20010;-75
2021/12/04 13:39:25;;;;;;;32.72;14.23;;;;;;;2.86;100.00;99517.94;5110580;28;20078;-74
2021/12/04 13:41:52;;;;;;;33.08;13.23;;;;;;;2.78;100.00;99497.53;5110859;28;20528;-74
2021/12/04 13:44:21;;;;;;;34.95;13.75;;;;;;;2.88;100.00;99524.72;5093304;28;20032;-73
2021/12/04 13:46:51;;;;;;;27.88;13.82;;;;;;;2.85;100.00;99503.06;5110541;28;20031;-74
2021/12/04 13:49:30;;;;;;;29.92;14.27;;;;;;;2.87;100.00;99501.13;5110451;28;20043;-74
2021/12/04 13:52:01;;;;;;;38.15;16.73;;;;;;;2.87;100.00;99501.13;5110646;28;20031;-75
2021/12/04 13:54:29;;;;;;;35.33;16.35;;;;;;;2.89;100.00;99500.00;5093004;28;20517;-75
2021/12/04 13:56:55;;;;;;;32.85;14.95;;;;;;;2.96;100.00;99506.38;5110191;28;20032;-74
2021/12/04 13:59:23;;;;;;;32.70;15.20;;;;;;;2.86;100.00;99502.94;5111300;27;20036;-75
2021/12/04 14:01:49;;;;;;;31.70;13.18;;;;;;;2.86;100.00;99500.31;5092748;28;20232;-74
2021/12/04 14:04:17;;;;;;;41.97;17.92;;;;;;;2.82;100.00;99491.00;5110922;28;20027;-74
2021/12/04 14:06:56;;;;;;;30.85;14.80;;;;;;;2.91;100.00;99511.25;5110984;28;20452;-74
2021/12/04 14:09:30;;;;;;;33.28;14.43;;;;;;;2.84;100.00;99486.44;5110343;28;20031;-74
2021/12/04 14:11:56;;;;;;;31.80;13.85;;;;;;;2.81;100.00;99486.72;5111140;28;20481;-75
2021/12/04 14:14:26;;;;;;;31.63;13.85;;;;;;;2.89;100.00;99507.91;5093024;28;20028;-74
2021/12/04 14:16:54;;;;;;;30.10;13.27;;;;;;;2.84;100.00;99499.63;5092718;28;20044;-75
2021/12/04 14:19:25;;;;;;;35.55;14.98;;;;;;;2.85;100.00;99498.63;5109809;28;20046;-75
2021/12/04 14:21:57;;;;;;;42.88;19.50;;;;;;;2.86;100.00;99504.75;5109711;28;20533;-75
2021/12/04 14:24:46;;;;;;;39.45;21.48;;;;;;;2.82;100.00;99504.19;5109080;28;20040;-74